Terminal Aerodrome Forecast
Issued by NWS Charleston, WV

Current Version | Previous Version | Graphics & Text | Print | Product List | Glossary On
Versions: 1 2 3 4 5 6 7 8 9 10 11 12 13 14 15 16 17 18 19 20 21 22 23 24
992
FTUS41 KRLX 240520
TAFCRW
TAF
KCRW 240520Z 2406/2506 00000KT 6SM -RA FEW001 BKN050
      TEMPO 2406/2409 2SM BR BKN001
     FM240900 00000KT 4SM BR BKN002 BKN040
     FM241100 00000KT P6SM OVC015
     FM241600 14007KT P6SM SHRA OVC030
     FM242300 14009KT P6SM OVC035=

USA.gov is the U.S. government's official web portal to all federal, state and local government web resources and services.